createdAt,value
2019-04-21T00:00:22.463Z,34.20
2019-04-21T00:11:21.809Z,31.70
2019-04-21T00:19:47.340Z,31.90
2019-04-21T00:25:17.813Z,30.70
2019-04-21T00:30:33.855Z,29.20
2019-04-21T00:34:17.218Z,30.00
2019-04-21T00:40:21.877Z,34.10
2019-04-21T00:44:38.715Z,32.80
2019-04-21T00:49:32.761Z,33.70
2019-04-21T00:59:49.853Z,34.10
2019-04-21T01:04:15.122Z,33.30
2019-04-21T01:14:03.919Z,37.50
2019-04-21T01:18:49.114Z,36.20
2019-04-21T01:22:49.737Z,38.10
2019-04-21T01:28:33.862Z,38.00
2019-04-21T01:33:37.833Z,37.80
2019-04-21T01:38:28.699Z,39.40
2019-04-21T01:43:13.235Z,39.40
2019-04-21T01:53:10.727Z,43.20
2019-04-21T01:57:49.156Z,38.50
2019-04-21T02:02:28.959Z,38.60
2019-04-21T02:12:25.099Z,37.10
2019-04-21T02:17:27.564Z,40.40
2019-04-21T02:21:37.783Z,39.50
2019-04-21T02:26:33.351Z,41.20
2019-04-21T02:32:35.109Z,42.30
2019-04-21T02:38:00.607Z,49.20
2019-04-21T02:41:46.840Z,44.90
2019-04-21T02:47:03.379Z,44.40
2019-04-21T02:56:16.540Z,45.30
2019-04-21T03:01:23.284Z,45.50
2019-04-21T03:06:15.136Z,47.90
2019-04-21T03:11:16.810Z,45.00
2019-04-21T03:15:58.930Z,51.00
2019-04-21T03:21:28.196Z,49.80
2019-04-21T03:26:00.530Z,45.70
2019-04-21T03:31:49.097Z,47.20
2019-04-21T03:40:14.454Z,46.90
2019-04-21T03:44:44.734Z,50.50
2019-04-21T03:50:25.982Z,48.00
2019-04-21T03:54:41.184Z,48.90
2019-04-21T03:59:24.017Z,50.00
2019-04-21T04:04:52.440Z,50.70
2019-04-21T04:09:18.121Z,51.00
2019-04-21T04:14:30.548Z,50.30
2019-04-21T04:23:19.950Z,55.10
2019-04-21T04:29:10.360Z,54.50
2019-04-21T04:33:36.969Z,51.40
2019-04-21T04:38:58.650Z,51.00
2019-04-21T04:48:27.586Z,51.30
2019-04-21T04:53:19.853Z,56.40
2019-04-21T04:57:58.891Z,54.20
2019-04-21T05:02:55.771Z,52.50
2019-04-21T05:08:19.045Z,52.20
2019-04-21T05:12:15.574Z,50.00
2019-04-21T05:17:28.431Z,51.80
2019-04-21T05:22:16.682Z,35.50
2019-04-21T05:26:25.703Z,23.10
2019-04-21T05:31:54.593Z,12.30
2019-04-21T05:36:37.571Z,14.20
2019-04-21T05:41:03.767Z,11.10
2019-04-21T05:45:57.753Z,8.30
2019-04-21T05:56:03.234Z,9.00
2019-04-21T06:01:28.355Z,10.70
2019-04-21T06:05:50.880Z,12.20
2019-04-21T06:10:41.735Z,13.60
2019-04-21T06:20:26.895Z,15.70
2019-04-21T06:29:58.590Z,16.90
2019-04-21T06:35:19.309Z,17.30
2019-04-21T06:39:37.027Z,17.10
2019-04-21T06:44:14.777Z,16.80
2019-04-21T06:59:00.535Z,16.80
2019-04-21T07:04:05.283Z,15.20
2019-04-21T07:09:01.845Z,15.40
2019-04-21T07:13:54.467Z,15.60
2019-04-21T07:23:36.677Z,15.30
2019-04-21T07:28:24.974Z,14.60
2019-04-21T07:33:41.000Z,13.70
2019-04-21T07:37:53.222Z,12.60
2019-04-21T07:42:42.511Z,11.50
2019-04-21T07:52:34.315Z,10.50
2019-04-21T07:57:02.909Z,10.90
2019-04-21T08:11:57.154Z,9.80
2019-04-21T08:17:02.671Z,8.20
2019-04-21T08:22:10.649Z,9.40
2019-04-21T08:26:57.262Z,9.20
2019-04-21T08:31:01.089Z,9.00
2019-04-21T08:36:50.763Z,9.00
2019-04-21T08:41:22.595Z,8.40
2019-04-21T08:51:13.844Z,7.60
2019-04-21T08:55:48.718Z,8.60
2019-04-21T09:15:13.483Z,3.50
2019-04-21T09:20:32.387Z,3.50
2019-04-21T09:24:40.681Z,2.50
2019-04-21T09:29:28.186Z,3.00
2019-04-21T09:33:53.737Z,2.00
2019-04-21T09:38:44.156Z,1.30
2019-04-21T09:43:47.209Z,1.00
2019-04-21T09:48:22.814Z,1.00
2019-04-21T09:53:31.100Z,2.10
2019-04-21T09:58:30.983Z,1.00
2019-04-21T10:03:10.223Z,1.00
2019-04-21T10:07:44.493Z,1.00
2019-04-21T10:12:33.481Z,1.00
2019-04-21T10:17:24.484Z,1.00
2019-04-21T10:22:16.694Z,1.00
2019-04-21T10:27:11.026Z,1.00
2019-04-21T10:32:00.038Z,1.00
2019-04-21T10:36:53.439Z,1.00
2019-04-21T10:41:44.013Z,1.00
2019-04-21T10:46:35.407Z,1.00
2019-04-21T10:51:25.844Z,1.00
2019-04-21T10:56:36.252Z,1.00
2019-04-21T11:01:10.143Z,1.00
2019-04-21T11:06:02.774Z,1.00
2019-04-21T11:10:52.373Z,1.00
2019-04-21T11:15:43.639Z,1.00
2019-04-21T11:20:35.362Z,1.00
2019-04-21T11:25:28.194Z,1.00
2019-04-21T11:30:20.458Z,1.00
2019-04-21T11:35:10.414Z,1.00
2019-04-21T11:40:14.822Z,1.00
2019-04-21T11:44:55.097Z,1.00
2019-04-21T11:49:45.705Z,1.00
2019-04-21T11:54:38.204Z,1.00
2019-04-21T11:59:30.396Z,1.00
2019-04-21T12:04:21.752Z,1.00
2019-04-21T12:09:14.742Z,1.00
2019-04-21T12:14:06.369Z,1.00
2019-04-21T12:18:59.041Z,1.00
2019-04-21T12:23:50.244Z,1.00
2019-04-21T12:28:41.519Z,1.00
2019-04-21T12:38:50.611Z,1.00
2019-04-21T12:43:17.234Z,1.00
2019-04-21T12:48:10.317Z,1.00
2019-04-21T12:53:00.351Z,1.00
2019-04-21T12:57:50.935Z,1.00
2019-04-21T13:02:45.534Z,1.00
2019-04-21T13:07:37.326Z,1.00
2019-04-21T13:12:27.498Z,1.00
2019-04-21T13:17:19.960Z,1.00
2019-04-21T13:22:10.373Z,1.00
2019-04-21T13:27:07.394Z,1.00
2019-04-21T13:31:54.652Z,1.00
2019-04-21T13:36:45.957Z,1.00
2019-04-21T13:42:15.919Z,1.00
2019-04-21T13:46:29.083Z,1.00
2019-04-21T13:51:19.963Z,1.00
2019-04-21T13:56:11.219Z,1.00
2019-04-21T14:01:03.178Z,1.00
2019-04-21T14:05:54.559Z,1.00
2019-04-21T14:10:44.375Z,1.00
2019-04-21T14:15:36.277Z,1.00
2019-04-21T14:20:29.324Z,1.00
2019-04-21T14:25:22.000Z,1.00
2019-04-21T14:30:12.779Z,1.00
2019-04-21T14:35:04.770Z,1.00
2019-04-21T14:40:12.491Z,1.00
2019-04-21T14:44:47.401Z,1.00
2019-04-21T14:49:39.679Z,1.00
2019-04-21T14:54:31.379Z,1.00
2019-04-21T14:59:25.010Z,1.00
2019-04-21T15:04:20.976Z,1.00
2019-04-21T15:09:09.431Z,1.00
2019-04-21T15:14:00.243Z,1.00
2019-04-21T15:18:51.072Z,1.00
2019-04-21T15:23:43.175Z,1.00
2019-04-21T15:28:39.161Z,1.00
2019-04-21T15:33:28.584Z,1.00
2019-04-21T15:38:20.354Z,1.00
2019-04-21T15:43:12.547Z,1.00
2019-04-21T15:48:04.774Z,1.00
2019-04-21T15:52:56.351Z,1.00
2019-04-21T15:57:48.895Z,1.00
2019-04-21T16:02:37.999Z,1.00
2019-04-21T16:07:31.890Z,1.00
2019-04-21T16:12:29.971Z,1.00
2019-04-21T16:17:22.075Z,1.00
2019-04-21T16:22:15.055Z,1.00
2019-04-21T16:27:12.811Z,1.00
2019-04-21T16:32:01.572Z,1.00
2019-04-21T16:36:52.250Z,1.00
2019-04-21T16:41:44.201Z,1.00
2019-04-21T16:46:35.895Z,1.00
2019-04-21T16:51:28.126Z,1.00
2019-04-21T16:56:17.598Z,1.00
2019-04-21T17:01:18.269Z,1.00
2019-04-21T17:06:05.351Z,1.00
2019-04-21T17:11:23.672Z,1.00
2019-04-21T17:16:54.942Z,1.00
2019-04-21T17:20:58.892Z,1.00
2019-04-21T17:25:30.122Z,1.00
2019-04-21T17:30:19.388Z,1.00
2019-04-21T17:35:16.375Z,1.00
2019-04-21T17:40:09.346Z,1.00
2019-04-21T17:44:59.603Z,1.00
2019-04-21T17:49:50.992Z,1.00
2019-04-21T17:54:54.265Z,1.00
2019-04-21T18:00:33.400Z,1.00
2019-04-21T18:10:25.516Z,1.00
2019-04-21T18:14:11.849Z,1.30
2019-04-21T18:19:03.035Z,1.50
2019-04-21T18:24:19.202Z,4.80
2019-04-21T18:28:46.750Z,5.40
2019-04-21T18:33:45.550Z,5.60
2019-04-21T18:39:21.416Z,6.50
2019-04-21T18:48:43.683Z,7.50
2019-04-21T18:53:44.672Z,7.90
2019-04-21T18:57:59.496Z,8.40
2019-04-21T19:02:59.755Z,9.90
2019-04-21T19:08:30.156Z,10.20
2019-04-21T19:19:39.077Z,11.00
2019-04-21T19:23:04.432Z,12.40
2019-04-21T19:33:02.475Z,13.10
2019-04-21T19:37:14.551Z,13.20
2019-04-21T19:42:19.043Z,13.40
2019-04-21T19:47:32.766Z,14.60
2019-04-21T19:52:05.081Z,14.30
2019-04-21T19:56:19.487Z,14.00
2019-04-21T20:01:13.943Z,16.00
2019-04-21T20:06:38.879Z,15.10
2019-04-21T20:11:41.376Z,16.70
2019-04-21T20:16:12.504Z,15.70
2019-04-21T20:20:37.760Z,16.80
2019-04-21T20:25:42.608Z,16.10
2019-04-21T20:31:23.196Z,17.80
2019-04-21T20:36:09.131Z,18.20
2019-04-21T20:40:41.048Z,19.00
2019-04-21T20:46:07.369Z,18.80
2019-04-21T20:50:33.062Z,19.70
2019-04-21T20:55:16.452Z,20.30
2019-04-21T21:00:36.851Z,21.10
2019-04-21T21:05:02.809Z,20.30
2019-04-21T21:09:59.934Z,20.70
2019-04-21T21:14:57.493Z,22.20
2019-04-21T21:24:50.379Z,23.80
2019-04-21T21:29:32.578Z,22.90
2019-04-21T21:34:40.186Z,26.20
2019-04-21T21:39:28.879Z,27.30
2019-04-21T21:43:26.684Z,25.10
2019-04-21T21:53:23.690Z,25.50
2019-04-21T21:58:06.321Z,25.40
2019-04-21T22:02:56.622Z,25.30
2019-04-21T22:07:40.202Z,26.10
2019-04-21T22:12:57.676Z,25.60
2019-04-21T22:18:16.535Z,26.60
2019-04-21T22:22:54.029Z,26.40
2019-04-21T22:27:07.179Z,27.00
2019-04-21T22:32:17.213Z,29.50
2019-04-21T22:37:29.806Z,28.30
2019-04-21T22:42:00.655Z,29.00
2019-04-21T22:46:32.601Z,30.40
2019-04-21T22:51:43.060Z,31.40
2019-04-21T22:56:30.009Z,29.30
2019-04-21T23:01:11.098Z,28.10
2019-04-21T23:06:17.808Z,30.20
2019-04-21T23:11:06.964Z,30.90
2019-04-21T23:15:56.747Z,30.10
2019-04-21T23:21:09.954Z,31.30
2019-04-21T23:26:18.049Z,31.20
2019-04-21T23:35:32.676Z,30.50
2019-04-21T23:40:16.220Z,30.70
2019-04-21T23:45:01.002Z,29.60
2019-04-21T23:50:16.802Z,33.10
2019-04-21T23:54:31.878Z,31.20
2019-04-21T23:59:26.446Z,31.70
